sensor_id;sensor_type;location;lat;lon;timestamp;P1;durP1;ratioP1;P2;durP2;ratioP2
3543;SDS011;1786;52.870;9.578;2022-08-18T00:01:31;12.00;;;10.90;;
3543;SDS011;1786;52.870;9.578;2022-08-18T00:03:59;15.87;;;11.83;;
3543;SDS011;1786;52.870;9.578;2022-08-18T00:06:29;13.40;;;11.30;;
3543;SDS011;1786;52.870;9.578;2022-08-18T00:08:59;16.97;;;12.50;;
3543;SDS011;1786;52.870;9.578;2022-08-18T00:11:30;12.87;;;11.53;;
3543;SDS011;1786;52.870;9.578;2022-08-18T00:14:14;12.53;;;11.00;;
3543;SDS011;1786;52.870;9.578;2022-08-18T00:16:48;12.73;;;11.53;;
3543;SDS011;1786;52.870;9.578;2022-08-18T00:19:16;12.37;;;11.23;;
3543;SDS011;1786;52.870;9.578;2022-08-18T00:21:43;13.30;;;11.83;;
3543;SDS011;1786;52.870;9.578;2022-08-18T00:24:10;12.70;;;11.50;;
3543;SDS011;1786;52.870;9.578;2022-08-18T00:26:37;12.90;;;11.70;;
3543;SDS011;1786;52.870;9.578;2022-08-18T00:29:03;12.53;;;11.33;;
3543;SDS011;1786;52.870;9.578;2022-08-18T00:31:30;13.30;;;11.77;;
3543;SDS011;1786;52.870;9.578;2022-08-18T00:33:57;11.57;;;10.57;;
3543;SDS011;1786;52.870;9.578;2022-08-18T00:36:25;12.47;;;11.47;;
3543;SDS011;1786;52.870;9.578;2022-08-18T00:38:53;12.83;;;11.77;;
3543;SDS011;1786;52.870;9.578;2022-08-18T00:41:20;11.60;;;10.70;;
3543;SDS011;1786;52.870;9.578;2022-08-18T00:43:48;12.37;;;10.87;;
3543;SDS011;1786;52.870;9.578;2022-08-18T00:46:20;13.97;;;12.13;;
3543;SDS011;1786;52.870;9.578;2022-08-18T00:48:52;15.13;;;11.77;;
3543;SDS011;1786;52.870;9.578;2022-08-18T00:51:25;12.67;;;11.57;;
3543;SDS011;1786;52.870;9.578;2022-08-18T00:54:10;11.77;;;10.80;;
3543;SDS011;1786;52.870;9.578;2022-08-18T00:56:45;13.97;;;12.67;;
3543;SDS011;1786;52.870;9.578;2022-08-18T00:59:16;11.90;;;10.87;;
3543;SDS011;1786;52.870;9.578;2022-08-18T01:01:49;13.20;;;11.37;;
3543;SDS011;1786;52.870;9.578;2022-08-18T01:04:19;13.07;;;12.03;;
3543;SDS011;1786;52.870;9.578;2022-08-18T01:06:51;12.90;;;11.90;;
3543;SDS011;1786;52.870;9.578;2022-08-18T01:09:22;14.70;;;13.20;;
3543;SDS011;1786;52.870;9.578;2022-08-18T01:11:49;15.43;;;14.03;;
3543;SDS011;1786;52.870;9.578;2022-08-18T01:14:17;13.53;;;12.17;;
3543;SDS011;1786;52.870;9.578;2022-08-18T01:16:45;14.00;;;12.53;;
3543;SDS011;1786;52.870;9.578;2022-08-18T01:19:32;11.97;;;10.87;;
3543;SDS011;1786;52.870;9.578;2022-08-18T01:22:21;12.77;;;11.70;;
3543;SDS011;1786;52.870;9.578;2022-08-18T01:25:04;11.37;;;10.20;;
3543;SDS011;1786;52.870;9.578;2022-08-18T01:27:51;13.27;;;11.90;;
3543;SDS011;1786;52.870;9.578;2022-08-18T01:30:25;13.27;;;11.97;;
3543;SDS011;1786;52.870;9.578;2022-08-18T01:32:52;14.80;;;13.47;;
3543;SDS011;1786;52.870;9.578;2022-08-18T01:35:19;16.47;;;11.10;;
3543;SDS011;1786;52.870;9.578;2022-08-18T01:37:48;12.67;;;11.37;;
3543;SDS011;1786;52.870;9.578;2022-08-18T01:40:16;11.97;;;10.77;;
3543;SDS011;1786;52.870;9.578;2022-08-18T01:43:05;12.70;;;11.60;;
3543;SDS011;1786;52.870;9.578;2022-08-18T01:45:32;13.03;;;10.80;;
3543;SDS011;1786;52.870;9.578;2022-08-18T01:47:59;13.33;;;10.20;;
3543;SDS011;1786;52.870;9.578;2022-08-18T01:50:26;12.27;;;10.97;;
3543;SDS011;1786;52.870;9.578;2022-08-18T01:52:53;13.87;;;12.53;;
3543;SDS011;1786;52.870;9.578;2022-08-18T01:55:20;16.10;;;14.07;;
3543;SDS011;1786;52.870;9.578;2022-08-18T01:57:47;17.53;;;15.83;;
3543;SDS011;1786;52.870;9.578;2022-08-18T02:00:15;21.07;;;17.60;;
3543;SDS011;1786;52.870;9.578;2022-08-18T02:02:43;23.57;;;17.93;;
3543;SDS011;1786;52.870;9.578;2022-08-18T02:05:26;25.80;;;17.57;;
3543;SDS011;1786;52.870;9.578;2022-08-18T02:07:58;20.70;;;16.83;;
3543;SDS011;1786;52.870;9.578;2022-08-18T02:10:25;18.43;;;16.67;;
3543;SDS011;1786;52.870;9.578;2022-08-18T02:12:52;21.97;;;19.97;;
3543;SDS011;1786;52.870;9.578;2022-08-18T02:15:19;20.20;;;18.30;;
3543;SDS011;1786;52.870;9.578;2022-08-18T02:17:46;22.90;;;20.70;;
3543;SDS011;1786;52.870;9.578;2022-08-18T02:20:14;24.30;;;21.80;;
3543;SDS011;1786;52.870;9.578;2022-08-18T02:22:43;28.80;;;25.03;;
3543;SDS011;1786;52.870;9.578;2022-08-18T02:25:11;28.57;;;25.20;;
3543;SDS011;1786;52.870;9.578;2022-08-18T02:27:39;30.37;;;24.90;;
3543;SDS011;1786;52.870;9.578;2022-08-18T02:30:07;27.27;;;23.20;;
3543;SDS011;1786;52.870;9.578;2022-08-18T02:32:36;28.70;;;25.63;;
3543;SDS011;1786;52.870;9.578;2022-08-18T02:35:03;30.03;;;23.93;;
3543;SDS011;1786;52.870;9.578;2022-08-18T02:37:35;29.50;;;26.30;;
3543;SDS011;1786;52.870;9.578;2022-08-18T02:40:04;42.73;;;29.80;;
3543;SDS011;1786;52.870;9.578;2022-08-18T02:42:31;39.13;;;30.20;;
3543;SDS011;1786;52.870;9.578;2022-08-18T02:44:57;38.40;;;31.17;;
3543;SDS011;1786;52.870;9.578;2022-08-18T02:47:24;42.77;;;32.67;;
3543;SDS011;1786;52.870;9.578;2022-08-18T02:49:58;40.23;;;32.33;;
3543;SDS011;1786;52.870;9.578;2022-08-18T02:52:25;46.70;;;35.97;;
3543;SDS011;1786;52.870;9.578;2022-08-18T02:54:59;41.47;;;34.23;;
3543;SDS011;1786;52.870;9.578;2022-08-18T02:57:30;52.70;;;36.83;;
3543;SDS011;1786;52.870;9.578;2022-08-18T02:59:56;48.17;;;37.10;;
3543;SDS011;1786;52.870;9.578;2022-08-18T03:02:25;53.93;;;40.13;;
3543;SDS011;1786;52.870;9.578;2022-08-18T03:04:52;52.47;;;39.83;;
3543;SDS011;1786;52.870;9.578;2022-08-18T03:07:19;53.57;;;41.23;;
3543;SDS011;1786;52.870;9.578;2022-08-18T03:09:45;60.00;;;46.83;;
3543;SDS011;1786;52.870;9.578;2022-08-18T03:12:12;72.03;;;46.50;;
3543;SDS011;1786;52.870;9.578;2022-08-18T03:14:38;71.77;;;48.07;;
3543;SDS011;1786;52.870;9.578;2022-08-18T03:17:06;69.43;;;48.60;;
3543;SDS011;1786;52.870;9.578;2022-08-18T03:19:34;73.20;;;49.53;;
3543;SDS011;1786;52.870;9.578;2022-08-18T03:22:01;75.10;;;49.53;;
3543;SDS011;1786;52.870;9.578;2022-08-18T03:24:29;69.43;;;49.50;;
3543;SDS011;1786;52.870;9.578;2022-08-18T03:26:58;67.67;;;49.67;;
3543;SDS011;1786;52.870;9.578;2022-08-18T03:29:25;73.60;;;49.20;;
3543;SDS011;1786;52.870;9.578;2022-08-18T03:31:58;66.33;;;46.60;;
3543;SDS011;1786;52.870;9.578;2022-08-18T03:34:26;67.50;;;46.00;;
3543;SDS011;1786;52.870;9.578;2022-08-18T03:36:52;69.23;;;50.60;;
3543;SDS011;1786;52.870;9.578;2022-08-18T03:39:19;67.13;;;47.40;;
3543;SDS011;1786;52.870;9.578;2022-08-18T03:41:50;66.40;;;46.93;;
3543;SDS011;1786;52.870;9.578;2022-08-18T03:44:27;68.93;;;45.30;;
3543;SDS011;1786;52.870;9.578;2022-08-18T03:46:56;67.90;;;46.13;;
3543;SDS011;1786;52.870;9.578;2022-08-18T03:49:22;65.87;;;45.27;;
3543;SDS011;1786;52.870;9.578;2022-08-18T03:51:49;71.17;;;49.10;;
3543;SDS011;1786;52.870;9.578;2022-08-18T03:54:17;67.67;;;47.00;;
3543;SDS011;1786;52.870;9.578;2022-08-18T03:56:45;78.63;;;49.60;;
3543;SDS011;1786;52.870;9.578;2022-08-18T03:59:14;85.93;;;47.37;;
3543;SDS011;1786;52.870;9.578;2022-08-18T04:01:44;71.00;;;47.63;;
3543;SDS011;1786;52.870;9.578;2022-08-18T04:04:15;70.63;;;47.57;;
3543;SDS011;1786;52.870;9.578;2022-08-18T04:06:47;71.60;;;48.00;;
3543;SDS011;1786;52.870;9.578;2022-08-18T04:09:16;69.47;;;45.83;;
3543;SDS011;1786;52.870;9.578;2022-08-18T04:11:44;65.30;;;46.90;;
3543;SDS011;1786;52.870;9.578;2022-08-18T04:14:13;62.97;;;44.67;;
3543;SDS011;1786;52.870;9.578;2022-08-18T04:16:41;70.47;;;45.37;;
3543;SDS011;1786;52.870;9.578;2022-08-18T04:19:09;65.30;;;44.63;;
3543;SDS011;1786;52.870;9.578;2022-08-18T04:21:39;69.70;;;44.70;;
3543;SDS011;1786;52.870;9.578;2022-08-18T04:24:08;63.53;;;44.10;;
3543;SDS011;1786;52.870;9.578;2022-08-18T04:26:37;69.87;;;46.43;;
3543;SDS011;1786;52.870;9.578;2022-08-18T04:29:08;66.60;;;45.33;;
3543;SDS011;1786;52.870;9.578;2022-08-18T04:31:36;68.50;;;43.20;;
3543;SDS011;1786;52.870;9.578;2022-08-18T04:34:03;68.57;;;44.47;;
3543;SDS011;1786;52.870;9.578;2022-08-18T04:36:35;64.60;;;43.27;;
3543;SDS011;1786;52.870;9.578;2022-08-18T04:39:03;63.33;;;43.87;;
3543;SDS011;1786;52.870;9.578;2022-08-18T04:41:33;66.43;;;44.93;;
3543;SDS011;1786;52.870;9.578;2022-08-18T04:44:05;68.70;;;43.20;;
3543;SDS011;1786;52.870;9.578;2022-08-18T04:46:38;57.30;;;41.23;;
3543;SDS011;1786;52.870;9.578;2022-08-18T04:49:07;57.60;;;40.30;;
3543;SDS011;1786;52.870;9.578;2022-08-18T04:51:39;56.70;;;41.20;;
3543;SDS011;1786;52.870;9.578;2022-08-18T04:54:34;54.60;;;41.53;;
3543;SDS011;1786;52.870;9.578;2022-08-18T04:57:05;59.70;;;41.90;;
3543;SDS011;1786;52.870;9.578;2022-08-18T04:59:37;54.27;;;39.20;;
3543;SDS011;1786;52.870;9.578;2022-08-18T05:02:06;56.27;;;38.27;;
3543;SDS011;1786;52.870;9.578;2022-08-18T05:04:40;53.30;;;40.30;;
3543;SDS011;1786;52.870;9.578;2022-08-18T05:07:14;50.30;;;36.50;;
3543;SDS011;1786;52.870;9.578;2022-08-18T05:09:42;51.07;;;38.57;;
3543;SDS011;1786;52.870;9.578;2022-08-18T05:12:11;46.43;;;37.93;;
3543;SDS011;1786;52.870;9.578;2022-08-18T05:14:40;56.90;;;37.43;;
3543;SDS011;1786;52.870;9.578;2022-08-18T05:17:07;49.93;;;39.30;;
3543;SDS011;1786;52.870;9.578;2022-08-18T05:19:34;46.00;;;34.90;;
3543;SDS011;1786;52.870;9.578;2022-08-18T05:22:07;46.17;;;33.70;;
3543;SDS011;1786;52.870;9.578;2022-08-18T05:24:35;48.70;;;31.93;;
3543;SDS011;1786;52.870;9.578;2022-08-18T05:27:03;41.13;;;32.77;;
3543;SDS011;1786;52.870;9.578;2022-08-18T05:29:31;43.10;;;33.03;;
3543;SDS011;1786;52.870;9.578;2022-08-18T05:32:11;46.07;;;35.60;;
3543;SDS011;1786;52.870;9.578;2022-08-18T05:35:07;42.67;;;33.30;;
3543;SDS011;1786;52.870;9.578;2022-08-18T05:37:41;36.60;;;32.70;;
3543;SDS011;1786;52.870;9.578;2022-08-18T05:40:19;39.00;;;31.10;;
3543;SDS011;1786;52.870;9.578;2022-08-18T05:42:50;36.50;;;31.13;;
3543;SDS011;1786;52.870;9.578;2022-08-18T05:45:17;43.93;;;32.33;;
3543;SDS011;1786;52.870;9.578;2022-08-18T05:47:45;39.80;;;33.47;;
3543;SDS011;1786;52.870;9.578;2022-08-18T05:50:13;43.80;;;33.00;;
3543;SDS011;1786;52.870;9.578;2022-08-18T05:52:50;38.37;;;31.50;;
3543;SDS011;1786;52.870;9.578;2022-08-18T05:55:28;36.97;;;29.80;;
3543;SDS011;1786;52.870;9.578;2022-08-18T05:58:25;49.83;;;31.17;;
3543;SDS011;1786;52.870;9.578;2022-08-18T06:01:03;36.10;;;30.10;;
3543;SDS011;1786;52.870;9.578;2022-08-18T06:03:42;33.60;;;28.73;;
3543;SDS011;1786;52.870;9.578;2022-08-18T06:06:18;36.40;;;28.17;;
3543;SDS011;1786;52.870;9.578;2022-08-18T06:08:52;38.20;;;30.03;;
3543;SDS011;1786;52.870;9.578;2022-08-18T06:11:29;36.60;;;31.10;;
3543;SDS011;1786;52.870;9.578;2022-08-18T06:13:55;36.70;;;29.90;;
3543;SDS011;1786;52.870;9.578;2022-08-18T06:16:32;36.40;;;29.87;;
3543;SDS011;1786;52.870;9.578;2022-08-18T06:22:33;35.60;;;28.17;;
3543;SDS011;1786;52.870;9.578;2022-08-18T06:25:21;29.17;;;26.07;;
3543;SDS011;1786;52.870;9.578;2022-08-18T06:28:06;32.17;;;26.40;;
3543;SDS011;1786;52.870;9.578;2022-08-18T06:33:48;34.80;;;26.30;;
3543;SDS011;1786;52.870;9.578;2022-08-18T06:36:37;31.80;;;25.93;;
3543;SDS011;1786;52.870;9.578;2022-08-18T06:41:55;27.00;;;22.93;;
3543;SDS011;1786;52.870;9.578;2022-08-18T06:46:56;25.77;;;23.00;;
3543;SDS011;1786;52.870;9.578;2022-08-18T06:49:45;24.40;;;21.80;;
3543;SDS011;1786;52.870;9.578;2022-08-18T06:52:26;29.87;;;23.37;;
3543;SDS011;1786;52.870;9.578;2022-08-18T06:54:56;27.63;;;23.60;;
3543;SDS011;1786;52.870;9.578;2022-08-18T06:57:29;26.47;;;22.67;;
3543;SDS011;1786;52.870;9.578;2022-08-18T07:02:37;28.00;;;22.90;;
3543;SDS011;1786;52.870;9.578;2022-08-18T07:05:20;29.83;;;23.67;;
3543;SDS011;1786;52.870;9.578;2022-08-18T07:10:48;27.50;;;22.47;;
3543;SDS011;1786;52.870;9.578;2022-08-18T07:13:18;28.93;;;23.93;;
3543;SDS011;1786;52.870;9.578;2022-08-18T07:15:47;26.03;;;22.07;;
3543;SDS011;1786;52.870;9.578;2022-08-18T07:18:20;24.73;;;22.00;;
3543;SDS011;1786;52.870;9.578;2022-08-18T07:20:51;28.33;;;22.00;;
3543;SDS011;1786;52.870;9.578;2022-08-18T07:23:25;31.40;;;23.17;;
3543;SDS011;1786;52.870;9.578;2022-08-18T07:26:09;32.90;;;24.00;;
3543;SDS011;1786;52.870;9.578;2022-08-18T07:33:47;26.70;;;22.80;;
3543;SDS011;1786;52.870;9.578;2022-08-18T07:36:23;29.97;;;22.60;;
3543;SDS011;1786;52.870;9.578;2022-08-18T07:38:56;30.80;;;24.50;;
3543;SDS011;1786;52.870;9.578;2022-08-18T07:41:31;29.80;;;24.60;;
3543;SDS011;1786;52.870;9.578;2022-08-18T07:47:01;35.77;;;26.00;;
3543;SDS011;1786;52.870;9.578;2022-08-18T07:49:51;34.40;;;24.10;;
3543;SDS011;1786;52.870;9.578;2022-08-18T07:52:50;33.27;;;24.80;;
3543;SDS011;1786;52.870;9.578;2022-08-18T07:55:40;29.23;;;23.10;;
3543;SDS011;1786;52.870;9.578;2022-08-18T08:00:40;29.70;;;23.07;;
3543;SDS011;1786;52.870;9.578;2022-08-18T08:06:09;28.37;;;22.07;;
3543;SDS011;1786;52.870;9.578;2022-08-18T08:11:46;27.87;;;19.80;;
3543;SDS011;1786;52.870;9.578;2022-08-18T08:20:03;23.73;;;19.43;;
3543;SDS011;1786;52.870;9.578;2022-08-18T08:31:28;23.40;;;17.27;;
3543;SDS011;1786;52.870;9.578;2022-08-18T08:36:40;19.37;;;16.63;;
3543;SDS011;1786;52.870;9.578;2022-08-18T08:39:17;21.37;;;16.13;;
3543;SDS011;1786;52.870;9.578;2022-08-18T08:41:52;16.07;;;13.20;;
3543;SDS011;1786;52.870;9.578;2022-08-18T08:44:50;18.63;;;13.20;;
3543;SDS011;1786;52.870;9.578;2022-08-18T08:47:28;16.40;;;12.20;;
3543;SDS011;1786;52.870;9.578;2022-08-18T08:50:01;14.20;;;12.23;;
3543;SDS011;1786;52.870;9.578;2022-08-18T08:52:41;17.30;;;11.70;;
3543;SDS011;1786;52.870;9.578;2022-08-18T08:55:16;21.93;;;11.67;;
3543;SDS011;1786;52.870;9.578;2022-08-18T08:57:52;14.13;;;11.97;;
3543;SDS011;1786;52.870;9.578;2022-08-18T09:00:27;18.57;;;13.00;;
3543;SDS011;1786;52.870;9.578;2022-08-18T09:08:37;14.93;;;11.80;;
3543;SDS011;1786;52.870;9.578;2022-08-18T09:13:51;14.23;;;12.10;;
3543;SDS011;1786;52.870;9.578;2022-08-18T09:22:29;17.17;;;12.00;;
3543;SDS011;1786;52.870;9.578;2022-08-18T09:25:31;17.77;;;11.43;;
3543;SDS011;1786;52.870;9.578;2022-08-18T09:28:09;16.70;;;12.20;;
3543;SDS011;1786;52.870;9.578;2022-08-18T09:38:56;13.10;;;11.80;;
3543;SDS011;1786;52.870;9.578;2022-08-18T09:41:50;13.63;;;11.90;;
3543;SDS011;1786;52.870;9.578;2022-08-18T09:49:53;15.03;;;12.40;;
3543;SDS011;1786;52.870;9.578;2022-08-18T09:54:58;12.43;;;10.50;;
3543;SDS011;1786;52.870;9.578;2022-08-18T09:57:25;17.53;;;11.60;;
3543;SDS011;1786;52.870;9.578;2022-08-18T10:07:42;15.03;;;10.20;;
3543;SDS011;1786;52.870;9.578;2022-08-18T10:13:19;13.93;;;11.60;;
3543;SDS011;1786;52.870;9.578;2022-08-18T10:21:23;16.53;;;12.20;;
3543;SDS011;1786;52.870;9.578;2022-08-18T10:29:42;12.10;;;10.90;;
3543;SDS011;1786;52.870;9.578;2022-08-18T10:34:58;15.33;;;10.90;;
3543;SDS011;1786;52.870;9.578;2022-08-18T10:42:58;12.60;;;10.67;;
3543;SDS011;1786;52.870;9.578;2022-08-18T10:46:02;15.23;;;11.60;;
3543;SDS011;1786;52.870;9.578;2022-08-18T10:48:58;13.80;;;11.73;;
3543;SDS011;1786;52.870;9.578;2022-08-18T10:51:36;18.07;;;11.73;;
3543;SDS011;1786;52.870;9.578;2022-08-18T11:05:39;11.00;;;10.00;;
3543;SDS011;1786;52.870;9.578;2022-08-18T11:08:11;10.33;;;9.37;;
3543;SDS011;1786;52.870;9.578;2022-08-18T11:10:42;18.83;;;9.47;;
3543;SDS011;1786;52.870;9.578;2022-08-18T11:13:48;19.60;;;9.60;;
3543;SDS011;1786;52.870;9.578;2022-08-18T11:16:30;12.43;;;10.70;;
3543;SDS011;1786;52.870;9.578;2022-08-18T11:19:13;12.67;;;10.50;;
3543;SDS011;1786;52.870;9.578;2022-08-18T11:21:43;16.83;;;10.47;;
3543;SDS011;1786;52.870;9.578;2022-08-18T11:26:50;11.70;;;10.27;;
3543;SDS011;1786;52.870;9.578;2022-08-18T11:29:26;11.23;;;10.00;;
3543;SDS011;1786;52.870;9.578;2022-08-18T11:34:44;14.90;;;10.40;;
3543;SDS011;1786;52.870;9.578;2022-08-18T11:49:17;13.05;;;9.43;;
3543;SDS011;1786;52.870;9.578;2022-08-18T11:52:00;11.25;;;8.80;;
3543;SDS011;1786;52.870;9.578;2022-08-18T11:54:46;10.18;;;8.98;;
3543;SDS011;1786;52.870;9.578;2022-08-18T11:57:29;14.32;;;9.68;;
3543;SDS011;1786;52.870;9.578;2022-08-18T11:59:57;12.40;;;9.90;;
3543;SDS011;1786;52.870;9.578;2022-08-18T12:02:26;9.48;;;8.27;;
3543;SDS011;1786;52.870;9.578;2022-08-18T12:04:55;12.02;;;9.10;;
3543;SDS011;1786;52.870;9.578;2022-08-18T12:07:33;11.80;;;8.70;;
3543;SDS011;1786;52.870;9.578;2022-08-18T12:12:52;9.50;;;8.40;;
3543;SDS011;1786;52.870;9.578;2022-08-18T12:15:25;10.45;;;8.35;;
3543;SDS011;1786;52.870;9.578;2022-08-18T12:18:09;10.63;;;7.88;;
3543;SDS011;1786;52.870;9.578;2022-08-18T12:20:51;16.08;;;7.68;;
3543;SDS011;1786;52.870;9.578;2022-08-18T12:23:18;9.10;;;7.57;;
3543;SDS011;1786;52.870;9.578;2022-08-18T12:25:46;9.35;;;6.45;;
3543;SDS011;1786;52.870;9.578;2022-08-18T12:28:17;9.85;;;6.78;;
3543;SDS011;1786;52.870;9.578;2022-08-18T12:30:48;10.80;;;6.65;;
3543;SDS011;1786;52.870;9.578;2022-08-18T12:33:35;6.70;;;5.93;;
3543;SDS011;1786;52.870;9.578;2022-08-18T12:36:28;6.68;;;6.07;;
3543;SDS011;1786;52.870;9.578;2022-08-18T12:38:55;10.00;;;6.97;;
3543;SDS011;1786;52.870;9.578;2022-08-18T12:41:23;8.30;;;5.97;;
3543;SDS011;1786;52.870;9.578;2022-08-18T12:43:49;10.55;;;6.32;;
3543;SDS011;1786;52.870;9.578;2022-08-18T12:46:24;8.65;;;7.47;;
3543;SDS011;1786;52.870;9.578;2022-08-18T12:48:52;6.88;;;6.20;;
3543;SDS011;1786;52.870;9.578;2022-08-18T12:51:19;10.32;;;5.20;;
3543;SDS011;1786;52.870;9.578;2022-08-18T12:53:50;5.32;;;4.93;;
3543;SDS011;1786;52.870;9.578;2022-08-18T12:56:37;5.35;;;4.90;;
3543;SDS011;1786;52.870;9.578;2022-08-18T12:59:06;6.13;;;5.32;;
3543;SDS011;1786;52.870;9.578;2022-08-18T13:01:34;8.18;;;5.00;;
3543;SDS011;1786;52.870;9.578;2022-08-18T13:04:05;6.75;;;6.22;;
3543;SDS011;1786;52.870;9.578;2022-08-18T13:06:40;7.22;;;5.20;;
3543;SDS011;1786;52.870;9.578;2022-08-18T13:09:26;13.15;;;5.43;;
3543;SDS011;1786;52.870;9.578;2022-08-18T13:12:13;6.60;;;6.00;;
3543;SDS011;1786;52.870;9.578;2022-08-18T13:14:42;6.40;;;5.57;;
3543;SDS011;1786;52.870;9.578;2022-08-18T13:17:10;5.90;;;5.40;;
3543;SDS011;1786;52.870;9.578;2022-08-18T13:19:58;9.85;;;5.78;;
3543;SDS011;1786;52.870;9.578;2022-08-18T13:22:26;6.97;;;4.88;;
3543;SDS011;1786;52.870;9.578;2022-08-18T13:24:59;5.80;;;4.05;;
3543;SDS011;1786;52.870;9.578;2022-08-18T13:27:26;5.45;;;5.05;;
3543;SDS011;1786;52.870;9.578;2022-08-18T13:30:02;13.25;;;4.65;;
3543;SDS011;1786;52.870;9.578;2022-08-18T13:32:51;7.95;;;4.47;;
3543;SDS011;1786;52.870;9.578;2022-08-18T13:35:25;10.60;;;4.18;;
3543;SDS011;1786;52.870;9.578;2022-08-18T13:38:01;5.85;;;4.70;;
3543;SDS011;1786;52.870;9.578;2022-08-18T13:40:39;6.13;;;4.45;;
3543;SDS011;1786;52.870;9.578;2022-08-18T13:43:12;4.78;;;4.43;;
3543;SDS011;1786;52.870;9.578;2022-08-18T13:45:40;9.85;;;3.97;;
3543;SDS011;1786;52.870;9.578;2022-08-18T13:48:09;4.47;;;3.85;;
3543;SDS011;1786;52.870;9.578;2022-08-18T13:50:38;7.68;;;4.47;;
3543;SDS011;1786;52.870;9.578;2022-08-18T13:53:14;4.90;;;4.50;;
3543;SDS011;1786;52.870;9.578;2022-08-18T13:55:45;4.20;;;3.75;;
3543;SDS011;1786;52.870;9.578;2022-08-18T13:58:12;4.18;;;3.88;;
3543;SDS011;1786;52.870;9.578;2022-08-18T14:00:46;4.82;;;4.32;;
3543;SDS011;1786;52.870;9.578;2022-08-18T14:03:17;6.25;;;4.65;;
3543;SDS011;1786;52.870;9.578;2022-08-18T14:06:08;6.00;;;4.15;;
3543;SDS011;1786;52.870;9.578;2022-08-18T14:08:38;4.57;;;4.20;;
3543;SDS011;1786;52.870;9.578;2022-08-18T14:11:05;10.25;;;4.20;;
3543;SDS011;1786;52.870;9.578;2022-08-18T14:13:32;4.20;;;3.80;;
3543;SDS011;1786;52.870;9.578;2022-08-18T14:16:09;4.25;;;3.92;;
3543;SDS011;1786;52.870;9.578;2022-08-18T14:18:44;3.70;;;3.40;;
3543;SDS011;1786;52.870;9.578;2022-08-18T14:21:35;4.53;;;4.07;;
3543;SDS011;1786;52.870;9.578;2022-08-18T14:24:26;10.65;;;4.20;;
3543;SDS011;1786;52.870;9.578;2022-08-18T14:27:15;4.50;;;4.10;;
3543;SDS011;1786;52.870;9.578;2022-08-18T14:29:43;8.55;;;4.68;;
3543;SDS011;1786;52.870;9.578;2022-08-18T14:32:16;4.40;;;4.00;;
3543;SDS011;1786;52.870;9.578;2022-08-18T14:34:58;5.72;;;4.00;;
3543;SDS011;1786;52.870;9.578;2022-08-18T14:37:47;10.32;;;3.33;;
3543;SDS011;1786;52.870;9.578;2022-08-18T14:40:15;5.05;;;4.50;;
3543;SDS011;1786;52.870;9.578;2022-08-18T14:42:43;6.88;;;4.18;;
3543;SDS011;1786;52.870;9.578;2022-08-18T14:45:20;14.93;;;4.30;;
3543;SDS011;1786;52.870;9.578;2022-08-18T14:48:04;7.75;;;4.45;;
3543;SDS011;1786;52.870;9.578;2022-08-18T14:50:36;4.45;;;4.15;;
3543;SDS011;1786;52.870;9.578;2022-08-18T14:53:10;6.53;;;4.28;;
3543;SDS011;1786;52.870;9.578;2022-08-18T14:55:40;6.40;;;4.05;;
3543;SDS011;1786;52.870;9.578;2022-08-18T14:58:08;3.70;;;3.50;;
3543;SDS011;1786;52.870;9.578;2022-08-18T15:00:36;4.65;;;4.25;;
3543;SDS011;1786;52.870;9.578;2022-08-18T15:03:19;6.80;;;4.07;;
3543;SDS011;1786;52.870;9.578;2022-08-18T15:05:57;5.63;;;4.40;;
3543;SDS011;1786;52.870;9.578;2022-08-18T15:08:24;4.35;;;3.88;;
3543;SDS011;1786;52.870;9.578;2022-08-18T15:10:52;4.72;;;3.75;;
3543;SDS011;1786;52.870;9.578;2022-08-18T15:13:19;7.72;;;4.90;;
3543;SDS011;1786;52.870;9.578;2022-08-18T15:15:50;9.50;;;4.70;;
3543;SDS011;1786;52.870;9.578;2022-08-18T15:18:18;6.55;;;4.38;;
3543;SDS011;1786;52.870;9.578;2022-08-18T15:20:49;10.65;;;5.18;;
3543;SDS011;1786;52.870;9.578;2022-08-18T15:23:45;6.20;;;5.05;;
3543;SDS011;1786;52.870;9.578;2022-08-18T15:26:45;8.57;;;5.40;;
3543;SDS011;1786;52.870;9.578;2022-08-18T15:29:22;20.63;;;5.70;;
3543;SDS011;1786;52.870;9.578;2022-08-18T15:31:53;12.73;;;5.90;;
3543;SDS011;1786;52.870;9.578;2022-08-18T15:34:25;14.20;;;6.70;;
3543;SDS011;1786;52.870;9.578;2022-08-18T15:36:53;8.63;;;6.30;;
3543;SDS011;1786;52.870;9.578;2022-08-18T15:39:22;10.93;;;5.33;;
3543;SDS011;1786;52.870;9.578;2022-08-18T15:41:49;8.33;;;5.50;;
3543;SDS011;1786;52.870;9.578;2022-08-18T15:44:21;5.43;;;5.03;;
3543;SDS011;1786;52.870;9.578;2022-08-18T15:46:48;11.33;;;5.73;;
3543;SDS011;1786;52.870;9.578;2022-08-18T15:49:18;8.40;;;5.43;;
3543;SDS011;1786;52.870;9.578;2022-08-18T15:51:48;7.63;;;5.67;;
3543;SDS011;1786;52.870;9.578;2022-08-18T15:54:15;14.33;;;5.93;;
3543;SDS011;1786;52.870;9.578;2022-08-18T15:56:45;8.77;;;5.60;;
3543;SDS011;1786;52.870;9.578;2022-08-18T15:59:24;5.63;;;4.40;;
3543;SDS011;1786;52.870;9.578;2022-08-18T16:02:05;11.70;;;4.77;;
3543;SDS011;1786;52.870;9.578;2022-08-18T16:04:36;11.43;;;4.90;;
3543;SDS011;1786;52.870;9.578;2022-08-18T16:07:05;10.23;;;5.37;;
3543;SDS011;1786;52.870;9.578;2022-08-18T16:09:35;9.03;;;5.50;;
3543;SDS011;1786;52.870;9.578;2022-08-18T16:12:02;5.60;;;5.00;;
3543;SDS011;1786;52.870;9.578;2022-08-18T16:14:29;8.17;;;5.03;;
3543;SDS011;1786;52.870;9.578;2022-08-18T16:16:56;11.90;;;5.43;;
3543;SDS011;1786;52.870;9.578;2022-08-18T16:19:23;8.23;;;4.90;;
3543;SDS011;1786;52.870;9.578;2022-08-18T16:21:53;9.30;;;5.33;;
3543;SDS011;1786;52.870;9.578;2022-08-18T16:24:21;7.33;;;4.67;;
3543;SDS011;1786;52.870;9.578;2022-08-18T16:26:48;6.80;;;5.00;;
3543;SDS011;1786;52.870;9.578;2022-08-18T16:29:17;11.37;;;5.60;;
3543;SDS011;1786;52.870;9.578;2022-08-18T16:31:44;9.23;;;5.60;;
3543;SDS011;1786;52.870;9.578;2022-08-18T16:34:11;7.10;;;5.43;;
3543;SDS011;1786;52.870;9.578;2022-08-18T16:36:38;12.33;;;5.03;;
3543;SDS011;1786;52.870;9.578;2022-08-18T16:39:04;11.10;;;6.67;;
3543;SDS011;1786;52.870;9.578;2022-08-18T16:41:32;9.13;;;4.80;;
3543;SDS011;1786;52.870;9.578;2022-08-18T16:43:59;12.10;;;5.10;;
3543;SDS011;1786;52.870;9.578;2022-08-18T16:46:26;10.13;;;5.50;;
3543;SDS011;1786;52.870;9.578;2022-08-18T16:48:54;8.13;;;5.20;;
3543;SDS011;1786;52.870;9.578;2022-08-18T16:51:23;4.83;;;4.43;;
3543;SDS011;1786;52.870;9.578;2022-08-18T16:53:52;10.43;;;5.87;;
3543;SDS011;1786;52.870;9.578;2022-08-18T16:56:22;7.20;;;5.20;;
3543;SDS011;1786;52.870;9.578;2022-08-18T16:58:51;9.00;;;5.43;;
3543;SDS011;1786;52.870;9.578;2022-08-18T17:01:36;11.63;;;5.73;;
3543;SDS011;1786;52.870;9.578;2022-08-18T17:04:24;15.67;;;5.40;;
3543;SDS011;1786;52.870;9.578;2022-08-18T17:06:54;8.43;;;4.80;;
3543;SDS011;1786;52.870;9.578;2022-08-18T17:09:22;9.10;;;5.10;;
3543;SDS011;1786;52.870;9.578;2022-08-18T17:11:49;7.53;;;4.37;;
3543;SDS011;1786;52.870;9.578;2022-08-18T17:14:22;7.60;;;4.60;;
3543;SDS011;1786;52.870;9.578;2022-08-18T17:16:51;7.00;;;4.47;;
3543;SDS011;1786;52.870;9.578;2022-08-18T17:19:21;10.60;;;4.90;;
3543;SDS011;1786;52.870;9.578;2022-08-18T17:21:49;12.17;;;5.70;;
3543;SDS011;1786;52.870;9.578;2022-08-18T17:24:16;8.33;;;5.30;;
3543;SDS011;1786;52.870;9.578;2022-08-18T17:29:57;5.97;;;4.33;;
3543;SDS011;1786;52.870;9.578;2022-08-18T17:32:39;5.97;;;4.63;;
3543;SDS011;1786;52.870;9.578;2022-08-18T17:35:13;9.43;;;4.93;;
3543;SDS011;1786;52.870;9.578;2022-08-18T17:38:07;12.70;;;5.20;;
3543;SDS011;1786;52.870;9.578;2022-08-18T17:40:42;12.87;;;5.27;;
3543;SDS011;1786;52.870;9.578;2022-08-18T17:43:13;10.40;;;4.83;;
3543;SDS011;1786;52.870;9.578;2022-08-18T17:45:43;11.67;;;4.67;;
3543;SDS011;1786;52.870;9.578;2022-08-18T17:48:20;8.37;;;4.67;;
3543;SDS011;1786;52.870;9.578;2022-08-18T17:50:51;11.53;;;5.23;;
3543;SDS011;1786;52.870;9.578;2022-08-18T17:53:41;5.90;;;4.30;;
3543;SDS011;1786;52.870;9.578;2022-08-18T17:56:19;8.63;;;5.13;;
3543;SDS011;1786;52.870;9.578;2022-08-18T17:59:05;13.80;;;5.37;;
3543;SDS011;1786;52.870;9.578;2022-08-18T18:04:56;8.03;;;5.90;;